sensor_id;sensor_type;location;lat;lon;timestamp;temperature;humidity
19538;DHT22;9914;51.008;4.300;2022-12-07T00:02:18;6.40;99.90
19538;DHT22;9914;51.008;4.300;2022-12-07T00:04:43;6.40;99.90
19538;DHT22;9914;51.008;4.300;2022-12-07T00:07:09;6.30;99.90
19538;DHT22;9914;51.008;4.300;2022-12-07T00:09:34;6.40;99.90
19538;DHT22;9914;51.008;4.300;2022-12-07T00:12:00;6.50;99.90
19538;DHT22;9914;51.008;4.300;2022-12-07T00:14:26;6.40;99.90
19538;DHT22;9914;51.008;4.300;2022-12-07T00:16:52;6.40;99.90
19538;DHT22;9914;51.008;4.300;2022-12-07T00:19:17;6.30;99.90
19538;DHT22;9914;51.008;4.300;2022-12-07T00:21:43;6.20;99.90
19538;DHT22;9914;51.008;4.300;2022-12-07T00:24:10;6.10;99.90
19538;DHT22;9914;51.008;4.300;2022-12-07T00:26:38;6.20;99.90
19538;DHT22;9914;51.008;4.300;2022-12-07T00:29:12;6.00;99.90
19538;DHT22;9914;51.008;4.300;2022-12-07T00:31:38;6.00;99.90
19538;DHT22;9914;51.008;4.300;2022-12-07T00:34:05;6.00;99.90
19538;DHT22;9914;51.008;4.300;2022-12-07T00:36:31;6.10;99.90
19538;DHT22;9914;51.008;4.300;2022-12-07T00:38:58;6.10;99.90
19538;DHT22;9914;51.008;4.300;2022-12-07T00:41:25;6.20;99.90
19538;DHT22;9914;51.008;4.300;2022-12-07T00:43:52;6.00;99.90
19538;DHT22;9914;51.008;4.300;2022-12-07T00:46:20;5.90;99.90
19538;DHT22;9914;51.008;4.300;2022-12-07T00:48:46;5.90;99.90
19538;DHT22;9914;51.008;4.300;2022-12-07T00:51:14;5.90;99.90
19538;DHT22;9914;51.008;4.300;2022-12-07T00:53:40;5.80;99.90
19538;DHT22;9914;51.008;4.300;2022-12-07T00:56:12;5.80;99.90
19538;DHT22;9914;51.008;4.300;2022-12-07T00:58:38;5.60;99.90
19538;DHT22;9914;51.008;4.300;2022-12-07T01:01:05;5.70;99.90
19538;DHT22;9914;51.008;4.300;2022-12-07T01:03:31;5.80;99.90
19538;DHT22;9914;51.008;4.300;2022-12-07T01:05:57;5.70;99.90
19538;DHT22;9914;51.008;4.300;2022-12-07T01:08:24;5.60;99.90
19538;DHT22;9914;51.008;4.300;2022-12-07T01:11:02;5.70;99.90
19538;DHT22;9914;51.008;4.300;2022-12-07T01:13:28;5.80;99.90
19538;DHT22;9914;51.008;4.300;2022-12-07T01:15:58;5.80;99.90
19538;DHT22;9914;51.008;4.300;2022-12-07T01:18:26;5.90;99.90
19538;DHT22;9914;51.008;4.300;2022-12-07T01:23:28;6.10;99.90
19538;DHT22;9914;51.008;4.300;2022-12-07T01:25:59;6.20;99.90
19538;DHT22;9914;51.008;4.300;2022-12-07T01:28:26;6.30;99.90
19538;DHT22;9914;51.008;4.300;2022-12-07T01:31:06;6.30;99.90
19538;DHT22;9914;51.008;4.300;2022-12-07T01:33:35;6.20;99.90
19538;DHT22;9914;51.008;4.300;2022-12-07T01:36:18;6.40;99.90
19538;DHT22;9914;51.008;4.300;2022-12-07T01:38:45;6.50;99.90
19538;DHT22;9914;51.008;4.300;2022-12-07T01:41:12;6.50;99.90
19538;DHT22;9914;51.008;4.300;2022-12-07T01:46:43;6.60;99.90
19538;DHT22;9914;51.008;4.300;2022-12-07T01:49:14;6.60;99.90
19538;DHT22;9914;51.008;4.300;2022-12-07T01:51:42;6.70;99.90
19538;DHT22;9914;51.008;4.300;2022-12-07T01:54:10;6.80;99.90
19538;DHT22;9914;51.008;4.300;2022-12-07T01:56:37;6.90;99.90
19538;DHT22;9914;51.008;4.300;2022-12-07T01:59:04;6.60;99.90
19538;DHT22;9914;51.008;4.300;2022-12-07T02:01:29;6.30;99.90
19538;DHT22;9914;51.008;4.300;2022-12-07T02:03:55;6.40;99.90
19538;DHT22;9914;51.008;4.300;2022-12-07T02:06:24;6.60;99.90
19538;DHT22;9914;51.008;4.300;2022-12-07T02:08:50;6.70;99.90
19538;DHT22;9914;51.008;4.300;2022-12-07T02:11:16;6.70;99.90
19538;DHT22;9914;51.008;4.300;2022-12-07T02:13:43;6.60;99.90
19538;DHT22;9914;51.008;4.300;2022-12-07T02:22:19;6.40;99.90
19538;DHT22;9914;51.008;4.300;2022-12-07T02:25:22;6.40;99.90
19538;DHT22;9914;51.008;4.300;2022-12-07T02:28:07;6.30;99.90
19538;DHT22;9914;51.008;4.300;2022-12-07T02:30:37;6.20;99.90
19538;DHT22;9914;51.008;4.300;2022-12-07T02:33:14;6.30;99.90
19538;DHT22;9914;51.008;4.300;2022-12-07T02:40:58;6.40;99.90
19538;DHT22;9914;51.008;4.300;2022-12-07T02:43:31;6.50;99.90
19538;DHT22;9914;51.008;4.300;2022-12-07T02:46:08;6.60;99.90
19538;DHT22;9914;51.008;4.300;2022-12-07T02:48:37;6.60;99.90
19538;DHT22;9914;51.008;4.300;2022-12-07T02:51:04;6.60;99.90
19538;DHT22;9914;51.008;4.300;2022-12-07T02:53:33;6.60;99.90
19538;DHT22;9914;51.008;4.300;2022-12-07T02:56:13;6.60;99.90
19538;DHT22;9914;51.008;4.300;2022-12-07T03:06:42;6.70;99.90
19538;DHT22;9914;51.008;4.300;2022-12-07T03:09:36;6.60;99.90
19538;DHT22;9914;51.008;4.300;2022-12-07T03:12:31;6.50;99.90
19538;DHT22;9914;51.008;4.300;2022-12-07T03:15:33;6.50;99.90
19538;DHT22;9914;51.008;4.300;2022-12-07T03:18:02;6.50;99.90
19538;DHT22;9914;51.008;4.300;2022-12-07T03:20:29;6.50;99.90
19538;DHT22;9914;51.008;4.300;2022-12-07T03:22:57;6.40;99.90
19538;DHT22;9914;51.008;4.300;2022-12-07T03:25:24;6.50;99.90
19538;DHT22;9914;51.008;4.300;2022-12-07T03:28:04;6.40;99.90
19538;DHT22;9914;51.008;4.300;2022-12-07T03:30:52;6.40;99.90
19538;DHT22;9914;51.008;4.300;2022-12-07T03:33:29;6.30;99.90
19538;DHT22;9914;51.008;4.300;2022-12-07T03:41:10;6.40;99.90
19538;DHT22;9914;51.008;4.300;2022-12-07T03:43:37;6.40;99.90
19538;DHT22;9914;51.008;4.300;2022-12-07T03:49:01;6.20;99.90
19538;DHT22;9914;51.008;4.300;2022-12-07T03:51:43;6.10;99.90
19538;DHT22;9914;51.008;4.300;2022-12-07T03:54:43;6.00;99.90
19538;DHT22;9914;51.008;4.300;2022-12-07T03:57:11;5.90;99.90
19538;DHT22;9914;51.008;4.300;2022-12-07T03:59:38;5.70;99.90
19538;DHT22;9914;51.008;4.300;2022-12-07T04:02:06;5.60;99.90
19538;DHT22;9914;51.008;4.300;2022-12-07T04:04:33;5.60;99.90
19538;DHT22;9914;51.008;4.300;2022-12-07T04:06:59;5.60;99.90
19538;DHT22;9914;51.008;4.300;2022-12-07T04:09:26;5.70;99.90
19538;DHT22;9914;51.008;4.300;2022-12-07T04:11:52;5.60;99.90
19538;DHT22;9914;51.008;4.300;2022-12-07T04:14:17;5.10;99.90
19538;DHT22;9914;51.008;4.300;2022-12-07T04:16:51;5.30;99.90
19538;DHT22;9914;51.008;4.300;2022-12-07T04:19:19;5.70;99.90
19538;DHT22;9914;51.008;4.300;2022-12-07T04:21:46;5.80;99.90
19538;DHT22;9914;51.008;4.300;2022-12-07T04:24:13;5.80;99.90
19538;DHT22;9914;51.008;4.300;2022-12-07T04:26:39;5.70;99.90
19538;DHT22;9914;51.008;4.300;2022-12-07T04:29:05;5.70;99.90
19538;DHT22;9914;51.008;4.300;2022-12-07T04:31:30;5.80;99.90
19538;DHT22;9914;51.008;4.300;2022-12-07T04:33:56;5.70;99.90
19538;DHT22;9914;51.008;4.300;2022-12-07T04:36:22;5.60;99.90
19538;DHT22;9914;51.008;4.300;2022-12-07T04:38:47;5.50;99.90
19538;DHT22;9914;51.008;4.300;2022-12-07T04:41:13;5.40;99.90
19538;DHT22;9914;51.008;4.300;2022-12-07T04:43:39;5.30;99.90
19538;DHT22;9914;51.008;4.300;2022-12-07T04:46:05;5.30;99.90
19538;DHT22;9914;51.008;4.300;2022-12-07T04:48:30;5.30;99.90
19538;DHT22;9914;51.008;4.300;2022-12-07T04:50:56;5.20;99.90
19538;DHT22;9914;51.008;4.300;2022-12-07T04:53:22;5.20;99.90
19538;DHT22;9914;51.008;4.300;2022-12-07T04:55:47;5.30;99.90
19538;DHT22;9914;51.008;4.300;2022-12-07T04:58:13;5.30;99.90
19538;DHT22;9914;51.008;4.300;2022-12-07T05:00:39;5.40;99.90
19538;DHT22;9914;51.008;4.300;2022-12-07T05:03:05;5.40;99.90
19538;DHT22;9914;51.008;4.300;2022-12-07T05:05:31;5.40;99.90
19538;DHT22;9914;51.008;4.300;2022-12-07T05:07:56;5.50;99.90
19538;DHT22;9914;51.008;4.300;2022-12-07T05:10:22;5.40;99.90
19538;DHT22;9914;51.008;4.300;2022-12-07T05:12:48;5.30;99.90
19538;DHT22;9914;51.008;4.300;2022-12-07T05:15:15;5.40;99.90
19538;DHT22;9914;51.008;4.300;2022-12-07T05:17:41;5.30;99.90
19538;DHT22;9914;51.008;4.300;2022-12-07T05:20:07;5.30;99.90
19538;DHT22;9914;51.008;4.300;2022-12-07T05:22:33;5.20;99.90
19538;DHT22;9914;51.008;4.300;2022-12-07T05:24:59;5.50;99.90
19538;DHT22;9914;51.008;4.300;2022-12-07T05:27:24;5.40;99.90
19538;DHT22;9914;51.008;4.300;2022-12-07T05:29:51;5.40;99.90
19538;DHT22;9914;51.008;4.300;2022-12-07T05:32:17;5.50;99.90
19538;DHT22;9914;51.008;4.300;2022-12-07T05:34:43;5.60;99.90
19538;DHT22;9914;51.008;4.300;2022-12-07T05:37:08;5.60;99.90
19538;DHT22;9914;51.008;4.300;2022-12-07T05:39:34;5.70;99.90
19538;DHT22;9914;51.008;4.300;2022-12-07T05:41:59;5.70;99.90
19538;DHT22;9914;51.008;4.300;2022-12-07T05:44:38;5.80;99.90
19538;DHT22;9914;51.008;4.300;2022-12-07T05:47:03;5.80;99.90
19538;DHT22;9914;51.008;4.300;2022-12-07T05:49:29;5.90;99.90
19538;DHT22;9914;51.008;4.300;2022-12-07T05:51:55;5.90;99.90
19538;DHT22;9914;51.008;4.300;2022-12-07T05:54:21;5.90;99.90
19538;DHT22;9914;51.008;4.300;2022-12-07T05:56:46;6.10;99.90
19538;DHT22;9914;51.008;4.300;2022-12-07T05:59:12;6.20;99.90
19538;DHT22;9914;51.008;4.300;2022-12-07T06:01:59;6.30;99.90
19538;DHT22;9914;51.008;4.300;2022-12-07T06:04:29;6.10;99.90
19538;DHT22;9914;51.008;4.300;2022-12-07T06:06:55;6.10;99.90
19538;DHT22;9914;51.008;4.300;2022-12-07T06:09:22;6.10;99.90
19538;DHT22;9914;51.008;4.300;2022-12-07T06:11:48;6.10;99.90
19538;DHT22;9914;51.008;4.300;2022-12-07T06:14:32;6.00;99.90
19538;DHT22;9914;51.008;4.300;2022-12-07T06:16:58;6.10;99.90
19538;DHT22;9914;51.008;4.300;2022-12-07T06:19:24;6.10;99.90
19538;DHT22;9914;51.008;4.300;2022-12-07T06:21:50;6.00;99.90
19538;DHT22;9914;51.008;4.300;2022-12-07T06:24:17;6.00;99.90
19538;DHT22;9914;51.008;4.300;2022-12-07T06:26:43;6.00;99.90
19538;DHT22;9914;51.008;4.300;2022-12-07T06:29:09;6.00;99.90
19538;DHT22;9914;51.008;4.300;2022-12-07T06:31:35;5.90;99.90
19538;DHT22;9914;51.008;4.300;2022-12-07T06:34:04;5.90;99.90
19538;DHT22;9914;51.008;4.300;2022-12-07T06:36:31;5.90;99.90
19538;DHT22;9914;51.008;4.300;2022-12-07T06:38:57;5.90;99.90
19538;DHT22;9914;51.008;4.300;2022-12-07T06:41:23;5.80;99.90
19538;DHT22;9914;51.008;4.300;2022-12-07T06:43:48;5.80;99.90
19538;DHT22;9914;51.008;4.300;2022-12-07T06:46:15;5.90;99.90
19538;DHT22;9914;51.008;4.300;2022-12-07T06:48:41;6.00;99.90
19538;DHT22;9914;51.008;4.300;2022-12-07T06:51:08;6.00;99.90
19538;DHT22;9914;51.008;4.300;2022-12-07T06:53:34;5.90;99.90
19538;DHT22;9914;51.008;4.300;2022-12-07T06:56:00;5.90;99.90
19538;DHT22;9914;51.008;4.300;2022-12-07T06:58:25;5.90;99.90
19538;DHT22;9914;51.008;4.300;2022-12-07T07:00:51;5.90;99.90
19538;DHT22;9914;51.008;4.300;2022-12-07T07:03:17;6.00;99.90
19538;DHT22;9914;51.008;4.300;2022-12-07T07:05:43;6.00;99.90
19538;DHT22;9914;51.008;4.300;2022-12-07T07:08:09;5.90;99.90
19538;DHT22;9914;51.008;4.300;2022-12-07T07:10:35;5.60;99.90
19538;DHT22;9914;51.008;4.300;2022-12-07T07:13:01;5.70;99.90
19538;DHT22;9914;51.008;4.300;2022-12-07T07:15:26;5.80;99.90
19538;DHT22;9914;51.008;4.300;2022-12-07T07:17:52;5.90;99.90
19538;DHT22;9914;51.008;4.300;2022-12-07T07:20:18;5.70;99.90
19538;DHT22;9914;51.008;4.300;2022-12-07T07:22:43;5.60;99.90
19538;DHT22;9914;51.008;4.300;2022-12-07T07:25:09;5.40;99.90
19538;DHT22;9914;51.008;4.300;2022-12-07T07:27:35;5.20;99.90
19538;DHT22;9914;51.008;4.300;2022-12-07T07:30:00;5.20;99.90
19538;DHT22;9914;51.008;4.300;2022-12-07T07:32:26;5.10;99.90
19538;DHT22;9914;51.008;4.300;2022-12-07T07:34:52;5.10;99.90
19538;DHT22;9914;51.008;4.300;2022-12-07T07:37:17;5.10;99.90
19538;DHT22;9914;51.008;4.300;2022-12-07T07:39:43;5.00;99.90
19538;DHT22;9914;51.008;4.300;2022-12-07T07:42:09;5.10;99.90
19538;DHT22;9914;51.008;4.300;2022-12-07T07:44:34;5.20;99.90
19538;DHT22;9914;51.008;4.300;2022-12-07T07:47:00;5.20;99.90
19538;DHT22;9914;51.008;4.300;2022-12-07T07:49:26;5.10;99.90
19538;DHT22;9914;51.008;4.300;2022-12-07T07:51:52;5.20;99.90
19538;DHT22;9914;51.008;4.300;2022-12-07T07:54:17;5.30;99.90
19538;DHT22;9914;51.008;4.300;2022-12-07T07:56:43;5.30;99.90
19538;DHT22;9914;51.008;4.300;2022-12-07T07:59:09;5.30;99.90
19538;DHT22;9914;51.008;4.300;2022-12-07T08:01:34;5.10;99.90
19538;DHT22;9914;51.008;4.300;2022-12-07T08:04:00;5.10;99.90
19538;DHT22;9914;51.008;4.300;2022-12-07T08:06:26;5.20;99.90
19538;DHT22;9914;51.008;4.300;2022-12-07T08:08:52;5.20;99.90
19538;DHT22;9914;51.008;4.300;2022-12-07T08:11:18;5.40;99.90
19538;DHT22;9914;51.008;4.300;2022-12-07T08:13:45;5.30;99.90
19538;DHT22;9914;51.008;4.300;2022-12-07T08:16:12;5.50;99.90
19538;DHT22;9914;51.008;4.300;2022-12-07T08:18:39;5.70;99.90
19538;DHT22;9914;51.008;4.300;2022-12-07T08:21:06;5.80;99.90
19538;DHT22;9914;51.008;4.300;2022-12-07T08:23:32;5.90;99.90
19538;DHT22;9914;51.008;4.300;2022-12-07T08:26:01;5.90;99.90
19538;DHT22;9914;51.008;4.300;2022-12-07T08:28:28;6.00;99.90
19538;DHT22;9914;51.008;4.300;2022-12-07T08:30:59;6.00;99.90
19538;DHT22;9914;51.008;4.300;2022-12-07T08:33:25;6.00;99.90
19538;DHT22;9914;51.008;4.300;2022-12-07T08:35:51;6.30;99.90
19538;DHT22;9914;51.008;4.300;2022-12-07T08:38:16;6.40;99.90
19538;DHT22;9914;51.008;4.300;2022-12-07T08:40:42;6.40;99.90
19538;DHT22;9914;51.008;4.300;2022-12-07T08:43:08;6.50;99.90
19538;DHT22;9914;51.008;4.300;2022-12-07T08:45:33;6.60;99.90
19538;DHT22;9914;51.008;4.300;2022-12-07T08:48:09;6.60;99.90
19538;DHT22;9914;51.008;4.300;2022-12-07T08:50:36;6.60;99.90
19538;DHT22;9914;51.008;4.300;2022-12-07T08:53:03;6.70;99.90
19538;DHT22;9914;51.008;4.300;2022-12-07T08:55:31;6.70;99.90
19538;DHT22;9914;51.008;4.300;2022-12-07T08:57:59;6.70;99.90
19538;DHT22;9914;51.008;4.300;2022-12-07T09:00:25;6.80;99.90
19538;DHT22;9914;51.008;4.300;2022-12-07T09:02:51;6.90;99.90
19538;DHT22;9914;51.008;4.300;2022-12-07T09:05:17;6.80;99.90
19538;DHT22;9914;51.008;4.300;2022-12-07T09:07:49;7.00;99.90
19538;DHT22;9914;51.008;4.300;2022-12-07T09:10:15;7.00;99.90
19538;DHT22;9914;51.008;4.300;2022-12-07T09:12:41;7.10;99.90
19538;DHT22;9914;51.008;4.300;2022-12-07T09:15:07;7.20;99.90
19538;DHT22;9914;51.008;4.300;2022-12-07T09:17:34;7.10;99.90
19538;DHT22;9914;51.008;4.300;2022-12-07T09:20:01;7.00;99.90
19538;DHT22;9914;51.008;4.300;2022-12-07T09:22:31;7.00;99.90
19538;DHT22;9914;51.008;4.300;2022-12-07T09:24:58;7.10;99.90
19538;DHT22;9914;51.008;4.300;2022-12-07T09:27:24;7.30;99.90
19538;DHT22;9914;51.008;4.300;2022-12-07T09:29:49;7.40;99.90
19538;DHT22;9914;51.008;4.300;2022-12-07T09:32:15;7.50;99.90
19538;DHT22;9914;51.008;4.300;2022-12-07T09:34:41;7.50;99.90
19538;DHT22;9914;51.008;4.300;2022-12-07T09:37:06;7.70;99.90
19538;DHT22;9914;51.008;4.300;2022-12-07T09:39:32;7.70;99.90
19538;DHT22;9914;51.008;4.300;2022-12-07T09:41:59;7.90;99.90
19538;DHT22;9914;51.008;4.300;2022-12-07T09:44:27;8.00;99.90
19538;DHT22;9914;51.008;4.300;2022-12-07T09:46:54;8.00;99.90
19538;DHT22;9914;51.008;4.300;2022-12-07T09:49:22;7.90;99.90
19538;DHT22;9914;51.008;4.300;2022-12-07T09:52:01;7.90;99.90
19538;DHT22;9914;51.008;4.300;2022-12-07T09:54:29;7.90;99.90
19538;DHT22;9914;51.008;4.300;2022-12-07T09:56:55;7.80;99.90
19538;DHT22;9914;51.008;4.300;2022-12-07T09:59:21;7.80;99.90
19538;DHT22;9914;51.008;4.300;2022-12-07T10:01:49;7.80;99.90
19538;DHT22;9914;51.008;4.300;2022-12-07T10:04:23;7.80;99.90
19538;DHT22;9914;51.008;4.300;2022-12-07T10:06:49;7.80;99.90
19538;DHT22;9914;51.008;4.300;2022-12-07T10:09:21;7.90;99.90
19538;DHT22;9914;51.008;4.300;2022-12-07T10:14:34;7.90;99.90
19538;DHT22;9914;51.008;4.300;2022-12-07T10:17:00;7.90;99.90
19538;DHT22;9914;51.008;4.300;2022-12-07T10:22:11;7.70;99.90
19538;DHT22;9914;51.008;4.300;2022-12-07T10:24:38;7.70;99.90
19538;DHT22;9914;51.008;4.300;2022-12-07T10:27:05;7.80;99.90
19538;DHT22;9914;51.008;4.300;2022-12-07T10:29:51;7.80;99.90
19538;DHT22;9914;51.008;4.300;2022-12-07T10:34:43;7.80;99.90
19538;DHT22;9914;51.008;4.300;2022-12-07T10:39:51;7.90;99.90
19538;DHT22;9914;51.008;4.300;2022-12-07T10:44:46;7.90;99.90
19538;DHT22;9914;51.008;4.300;2022-12-07T10:47:51;7.90;99.90
19538;DHT22;9914;51.008;4.300;2022-12-07T11:01:57;7.80;99.90
19538;DHT22;9914;51.008;4.300;2022-12-07T11:07:28;7.90;99.90
19538;DHT22;9914;51.008;4.300;2022-12-07T11:10:26;8.10;99.90
19538;DHT22;9914;51.008;4.300;2022-12-07T11:18:32;8.20;99.90
19538;DHT22;9914;51.008;4.300;2022-12-07T11:34:32;9.00;99.90
19538;DHT22;9914;51.008;4.300;2022-12-07T11:37:05;8.70;99.90
19538;DHT22;9914;51.008;4.300;2022-12-07T11:39:47;9.00;99.90
19538;DHT22;9914;51.008;4.300;2022-12-07T11:42:29;9.00;99.90
19538;DHT22;9914;51.008;4.300;2022-12-07T11:45:00;9.10;99.90
19538;DHT22;9914;51.008;4.300;2022-12-07T11:56:20;8.80;99.90
19538;DHT22;9914;51.008;4.300;2022-12-07T12:04:26;8.90;99.90
19538;DHT22;9914;51.008;4.300;2022-12-07T12:06:54;9.00;99.90
19538;DHT22;9914;51.008;4.300;2022-12-07T12:09:41;8.90;99.90
19538;DHT22;9914;51.008;4.300;2022-12-07T12:15:09;9.00;99.90
19538;DHT22;9914;51.008;4.300;2022-12-07T12:18:15;9.00;99.90
19538;DHT22;9914;51.008;4.300;2022-12-07T12:23:36;8.90;99.90
19538;DHT22;9914;51.008;4.300;2022-12-07T12:26:07;9.00;99.90
19538;DHT22;9914;51.008;4.300;2022-12-07T12:31:33;9.40;99.90
19538;DHT22;9914;51.008;4.300;2022-12-07T12:34:04;9.60;99.90
19538;DHT22;9914;51.008;4.300;2022-12-07T12:36:43;9.70;99.90
19538;DHT22;9914;51.008;4.300;2022-12-07T12:39:15;9.70;99.90
19538;DHT22;9914;51.008;4.300;2022-12-07T12:46:48;9.70;99.90
19538;DHT22;9914;51.008;4.300;2022-12-07T12:51:47;9.60;99.90
19538;DHT22;9914;51.008;4.300;2022-12-07T13:01:49;9.00;99.90
19538;DHT22;9914;51.008;4.300;2022-12-07T13:04:28;9.00;99.90
19538;DHT22;9914;51.008;4.300;2022-12-07T13:06:55;9.00;99.90
19538;DHT22;9914;51.008;4.300;2022-12-07T13:09:24;8.90;99.90
19538;DHT22;9914;51.008;4.300;2022-12-07T13:12:03;8.90;99.90
19538;DHT22;9914;51.008;4.300;2022-12-07T13:14:43;8.90;99.90
19538;DHT22;9914;51.008;4.300;2022-12-07T13:23:04;9.00;99.90
19538;DHT22;9914;51.008;4.300;2022-12-07T13:25:41;9.20;99.90
19538;DHT22;9914;51.008;4.300;2022-12-07T13:28:17;9.20;99.90
19538;DHT22;9914;51.008;4.300;2022-12-07T13:31:01;9.20;99.90
19538;DHT22;9914;51.008;4.300;2022-12-07T13:33:29;9.20;99.90
19538;DHT22;9914;51.008;4.300;2022-12-07T13:35:56;9.10;99.90
19538;DHT22;9914;51.008;4.300;2022-12-07T13:38:23;8.70;99.90
19538;DHT22;9914;51.008;4.300;2022-12-07T13:41:04;8.40;99.90
19538;DHT22;9914;51.008;4.300;2022-12-07T13:44:09;7.90;99.90
19538;DHT22;9914;51.008;4.300;2022-12-07T13:49:36;7.60;99.90
19538;DHT22;9914;51.008;4.300;2022-12-07T13:52:21;7.60;99.90
19538;DHT22;9914;51.008;4.300;2022-12-07T13:54:49;7.50;99.90
19538;DHT22;9914;51.008;4.300;2022-12-07T13:57:20;7.50;99.90
19538;DHT22;9914;51.008;4.300;2022-12-07T13:59:46;7.60;99.90
19538;DHT22;9914;51.008;4.300;2022-12-07T14:02:28;7.80;99.90
19538;DHT22;9914;51.008;4.300;2022-12-07T14:05:13;7.80;99.90
19538;DHT22;9914;51.008;4.300;2022-12-07T14:07:54;7.90;99.90
19538;DHT22;9914;51.008;4.300;2022-12-07T14:10:27;8.00;99.90
19538;DHT22;9914;51.008;4.300;2022-12-07T14:12:53;8.00;99.90
19538;DHT22;9914;51.008;4.300;2022-12-07T14:15:22;8.10;99.90
19538;DHT22;9914;51.008;4.300;2022-12-07T14:17:53;8.10;99.90
19538;DHT22;9914;51.008;4.300;2022-12-07T14:22:55;8.20;99.90
19538;DHT22;9914;51.008;4.300;2022-12-07T14:25:26;8.20;99.90
19538;DHT22;9914;51.008;4.300;2022-12-07T14:27:58;8.20;99.90
19538;DHT22;9914;51.008;4.300;2022-12-07T14:30:34;8.30;99.90
19538;DHT22;9914;51.008;4.300;2022-12-07T14:33:02;8.30;99.90
19538;DHT22;9914;51.008;4.300;2022-12-07T14:35:29;8.20;99.90
19538;DHT22;9914;51.008;4.300;2022-12-07T14:37:55;8.20;99.90
19538;DHT22;9914;51.008;4.300;2022-12-07T14:40:22;8.30;99.90
19538;DHT22;9914;51.008;4.300;2022-12-07T14:42:51;8.20;99.90
19538;DHT22;9914;51.008;4.300;2022-12-07T14:45:20;8.20;99.90
19538;DHT22;9914;51.008;4.300;2022-12-07T14:47:46;8.10;99.90
19538;DHT22;9914;51.008;4.300;2022-12-07T14:50:17;8.10;99.90
19538;DHT22;9914;51.008;4.300;2022-12-07T14:52:48;8.10;99.90
19538;DHT22;9914;51.008;4.300;2022-12-07T14:55:25;8.10;99.90
19538;DHT22;9914;51.008;4.300;2022-12-07T14:57:51;8.20;99.90
19538;DHT22;9914;51.008;4.300;2022-12-07T15:00:18;8.10;99.90
19538;DHT22;9914;51.008;4.300;2022-12-07T15:02:44;8.10;99.90
19538;DHT22;9914;51.008;4.300;2022-12-07T15:05:11;8.10;99.90
19538;DHT22;9914;51.008;4.300;2022-12-07T15:07:36;8.10;99.90
19538;DHT22;9914;51.008;4.300;2022-12-07T15:10:03;8.10;99.90
19538;DHT22;9914;51.008;4.300;2022-12-07T15:12:29;8.10;99.90
19538;DHT22;9914;51.008;4.300;2022-12-07T15:14:54;8.20;99.90
19538;DHT22;9914;51.008;4.300;2022-12-07T15:17:20;8.20;99.90
19538;DHT22;9914;51.008;4.300;2022-12-07T15:19:46;8.20;99.90
19538;DHT22;9914;51.008;4.300;2022-12-07T15:22:11;8.20;99.90
19538;DHT22;9914;51.008;4.300;2022-12-07T15:24:37;8.10;99.90
19538;DHT22;9914;51.008;4.300;2022-12-07T15:27:03;8.10;99.90
19538;DHT22;9914;51.008;4.300;2022-12-07T15:29:29;8.10;99.90
19538;DHT22;9914;51.008;4.300;2022-12-07T15:31:55;8.00;99.90
19538;DHT22;9914;51.008;4.300;2022-12-07T15:34:21;7.70;99.90
19538;DHT22;9914;51.008;4.300;2022-12-07T15:36:48;7.70;99.90
19538;DHT22;9914;51.008;4.300;2022-12-07T15:39:13;7.70;99.90
19538;DHT22;9914;51.008;4.300;2022-12-07T15:41:39;7.80;99.90
19538;DHT22;9914;51.008;4.300;2022-12-07T15:44:04;7.90;99.90
19538;DHT22;9914;51.008;4.300;2022-12-07T15:46:49;8.00;99.90
19538;DHT22;9914;51.008;4.300;2022-12-07T15:49:18;7.80;99.90
19538;DHT22;9914;51.008;4.300;2022-12-07T15:51:45;7.90;99.90
19538;DHT22;9914;51.008;4.300;2022-12-07T15:54:18;8.00;99.90
19538;DHT22;9914;51.008;4.300;2022-12-07T15:56:44;7.90;99.90
19538;DHT22;9914;51.008;4.300;2022-12-07T15:59:10;7.90;99.90
19538;DHT22;9914;51.008;4.300;2022-12-07T16:01:35;7.80;99.90
19538;DHT22;9914;51.008;4.300;2022-12-07T16:04:01;7.80;99.90
19538;DHT22;9914;51.008;4.300;2022-12-07T16:06:26;7.80;99.90
19538;DHT22;9914;51.008;4.300;2022-12-07T16:08:52;7.80;99.90
19538;DHT22;9914;51.008;4.300;2022-12-07T16:11:18;7.80;99.90
19538;DHT22;9914;51.008;4.300;2022-12-07T16:13:44;7.80;99.90
19538;DHT22;9914;51.008;4.300;2022-12-07T16:16:15;7.80;99.90
19538;DHT22;9914;51.008;4.300;2022-12-07T16:18:42;7.70;99.90
19538;DHT22;9914;51.008;4.300;2022-12-07T16:21:08;7.80;99.90
19538;DHT22;9914;51.008;4.300;2022-12-07T16:23:34;7.80;99.90
19538;DHT22;9914;51.008;4.300;2022-12-07T16:26:07;7.90;99.90
19538;DHT22;9914;51.008;4.300;2022-12-07T16:28:33;7.70;99.90
19538;DHT22;9914;51.008;4.300;2022-12-07T16:31:10;7.60;99.90
19538;DHT22;9914;51.008;4.300;2022-12-07T16:33:38;7.70;99.90
19538;DHT22;9914;51.008;4.300;2022-12-07T16:36:05;7.80;99.90
19538;DHT22;9914;51.008;4.300;2022-12-07T16:38:31;7.80;99.90
19538;DHT22;9914;51.008;4.300;2022-12-07T16:40:57;7.80;99.90
19538;DHT22;9914;51.008;4.300;2022-12-07T16:43:23;7.80;99.90
19538;DHT22;9914;51.008;4.300;2022-12-07T16:45:49;7.80;99.90
19538;DHT22;9914;51.008;4.300;2022-12-07T16:48:16;7.70;99.90
19538;DHT22;9914;51.008;4.300;2022-12-07T16:50:42;7.70;99.90
19538;DHT22;9914;51.008;4.300;2022-12-07T16:53:10;7.70;99.90
19538;DHT22;9914;51.008;4.300;2022-12-07T16:55:37;7.70;99.90
19538;DHT22;9914;51.008;4.300;2022-12-07T16:58:03;7.80;99.90
19538;DHT22;9914;51.008;4.300;2022-12-07T17:00:28;7.70;99.90
19538;DHT22;9914;51.008;4.300;2022-12-07T17:02:54;7.70;99.90
19538;DHT22;9914;51.008;4.300;2022-12-07T17:05:20;7.60;99.90
19538;DHT22;9914;51.008;4.300;2022-12-07T17:07:46;7.60;99.90
19538;DHT22;9914;51.008;4.300;2022-12-07T17:10:11;7.50;99.90
19538;DHT22;9914;51.008;4.300;2022-12-07T17:12:37;7.60;99.90
19538;DHT22;9914;51.008;4.300;2022-12-07T17:15:03;7.50;99.90
19538;DHT22;9914;51.008;4.300;2022-12-07T17:17:55;7.50;99.90
19538;DHT22;9914;51.008;4.300;2022-12-07T17:20:22;7.60;99.90
19538;DHT22;9914;51.008;4.300;2022-12-07T17:22:48;7.60;99.90
19538;DHT22;9914;51.008;4.300;2022-12-07T17:25:14;7.50;99.90
19538;DHT22;9914;51.008;4.300;2022-12-07T17:27:40;7.60;99.90
19538;DHT22;9914;51.008;4.300;2022-12-07T17:30:07;7.60;99.90
19538;DHT22;9914;51.008;4.300;2022-12-07T17:32:32;7.60;99.90
19538;DHT22;9914;51.008;4.300;2022-12-07T17:34:58;7.40;99.90
19538;DHT22;9914;51.008;4.300;2022-12-07T17:37:25;7.50;99.90
19538;DHT22;9914;51.008;4.300;2022-12-07T17:39:51;7.60;99.90
19538;DHT22;9914;51.008;4.300;2022-12-07T17:42:17;7.50;99.90
19538;DHT22;9914;51.008;4.300;2022-12-07T17:45:08;7.60;99.90
19538;DHT22;9914;51.008;4.300;2022-12-07T17:47:35;7.60;99.90
19538;DHT22;9914;51.008;4.300;2022-12-07T17:50:02;7.50;99.90
19538;DHT22;9914;51.008;4.300;2022-12-07T17:52:28;7.30;99.90
19538;DHT22;9914;51.008;4.300;2022-12-07T17:55:12;7.10;99.90
19538;DHT22;9914;51.008;4.300;2022-12-07T17:57:37;7.10;99.90
19538;DHT22;9914;51.008;4.300;2022-12-07T18:00:04;7.10;99.90
19538;DHT22;9914;51.008;4.300;2022-12-07T18:02:30;7.00;99.90
19538;DHT22;9914;51.008;4.300;2022-12-07T18:04:56;7.00;99.90
19538;DHT22;9914;51.008;4.300;2022-12-07T18:07:22;6.90;99.90
19538;DHT22;9914;51.008;4.300;2022-12-07T18:09:48;7.00;99.90
19538;DHT22;9914;51.008;4.300;2022-12-07T18:12:13;7.00;99.90
19538;DHT22;9914;51.008;4.300;2022-12-07T18:14:39;7.00;99.90
19538;DHT22;9914;51.008;4.300;2022-12-07T18:17:05;6.90;99.90
19538;DHT22;9914;51.008;4.300;2022-12-07T18:19:30;6.90;99.90
19538;DHT22;9914;51.008;4.300;2022-12-07T18:21:57;6.80;99.90
19538;DHT22;9914;51.008;4.300;2022-12-07T18:24:23;6.70;99.90